sensor_id;sensor_type;location;lat;lon;timestamp;temperature;humidity
14172;DHT22;7165;52.388;4.928;2023-09-18T00:01:41;18.50;99.90
14172;DHT22;7165;52.388;4.928;2023-09-18T00:04:09;18.50;99.90
14172;DHT22;7165;52.388;4.928;2023-09-18T00:06:36;18.50;99.90
14172;DHT22;7165;52.388;4.928;2023-09-18T00:09:02;18.50;99.90
14172;DHT22;7165;52.388;4.928;2023-09-18T00:11:29;18.60;99.90
14172;DHT22;7165;52.388;4.928;2023-09-18T00:13:55;18.50;99.90
14172;DHT22;7165;52.388;4.928;2023-09-18T00:16:22;18.50;99.90
14172;DHT22;7165;52.388;4.928;2023-09-18T00:18:50;18.50;99.90
14172;DHT22;7165;52.388;4.928;2023-09-18T00:21:18;18.50;99.90
14172;DHT22;7165;52.388;4.928;2023-09-18T00:23:45;18.50;99.90
14172;DHT22;7165;52.388;4.928;2023-09-18T00:26:12;18.60;99.90
14172;DHT22;7165;52.388;4.928;2023-09-18T00:28:38;18.60;99.90
14172;DHT22;7165;52.388;4.928;2023-09-18T00:31:05;18.50;99.90
14172;DHT22;7165;52.388;4.928;2023-09-18T00:33:31;18.60;99.90
14172;DHT22;7165;52.388;4.928;2023-09-18T00:35:58;18.60;99.90
14172;DHT22;7165;52.388;4.928;2023-09-18T00:38:26;18.60;99.90
14172;DHT22;7165;52.388;4.928;2023-09-18T00:40:52;18.70;99.90
14172;DHT22;7165;52.388;4.928;2023-09-18T00:43:19;18.70;99.90
14172;DHT22;7165;52.388;4.928;2023-09-18T00:45:47;18.70;99.90
14172;DHT22;7165;52.388;4.928;2023-09-18T00:48:13;18.80;99.90
14172;DHT22;7165;52.388;4.928;2023-09-18T00:50:40;18.70;99.90
14172;DHT22;7165;52.388;4.928;2023-09-18T00:53:07;18.70;99.90
14172;DHT22;7165;52.388;4.928;2023-09-18T00:55:35;18.70;99.90
14172;DHT22;7165;52.388;4.928;2023-09-18T00:58:02;18.70;99.90
14172;DHT22;7165;52.388;4.928;2023-09-18T01:00:29;18.70;99.90
14172;DHT22;7165;52.388;4.928;2023-09-18T01:02:55;18.60;99.90
14172;DHT22;7165;52.388;4.928;2023-09-18T01:05:22;18.60;99.90
14172;DHT22;7165;52.388;4.928;2023-09-18T01:07:48;18.60;99.90
14172;DHT22;7165;52.388;4.928;2023-09-18T01:10:15;18.50;99.90
14172;DHT22;7165;52.388;4.928;2023-09-18T01:12:46;18.60;99.90
14172;DHT22;7165;52.388;4.928;2023-09-18T01:15:15;18.50;99.90
14172;DHT22;7165;52.388;4.928;2023-09-18T01:17:43;18.60;99.90
14172;DHT22;7165;52.388;4.928;2023-09-18T01:20:11;18.60;99.90
14172;DHT22;7165;52.388;4.928;2023-09-18T01:22:39;18.60;99.90
14172;DHT22;7165;52.388;4.928;2023-09-18T01:25:06;18.70;99.90
14172;DHT22;7165;52.388;4.928;2023-09-18T01:27:33;18.70;99.90
14172;DHT22;7165;52.388;4.928;2023-09-18T01:29:59;18.80;99.90
14172;DHT22;7165;52.388;4.928;2023-09-18T01:32:29;18.80;99.90
14172;DHT22;7165;52.388;4.928;2023-09-18T01:34:57;18.90;99.90
14172;DHT22;7165;52.388;4.928;2023-09-18T01:37:26;19.00;99.90
14172;DHT22;7165;52.388;4.928;2023-09-18T01:39:54;19.00;99.90
14172;DHT22;7165;52.388;4.928;2023-09-18T01:42:24;19.00;99.90
14172;DHT22;7165;52.388;4.928;2023-09-18T01:44:51;19.00;99.90
14172;DHT22;7165;52.388;4.928;2023-09-18T01:47:18;19.10;99.90
14172;DHT22;7165;52.388;4.928;2023-09-18T01:49:46;19.10;99.90
14172;DHT22;7165;52.388;4.928;2023-09-18T01:52:12;19.10;99.90
14172;DHT22;7165;52.388;4.928;2023-09-18T01:54:39;19.10;99.90
14172;DHT22;7165;52.388;4.928;2023-09-18T01:57:07;19.10;99.90
14172;DHT22;7165;52.388;4.928;2023-09-18T01:59:34;19.10;99.90
14172;DHT22;7165;52.388;4.928;2023-09-18T02:02:00;19.20;99.90
14172;DHT22;7165;52.388;4.928;2023-09-18T02:04:29;19.30;99.90
14172;DHT22;7165;52.388;4.928;2023-09-18T02:06:55;19.40;99.90
14172;DHT22;7165;52.388;4.928;2023-09-18T02:09:22;19.50;99.90
14172;DHT22;7165;52.388;4.928;2023-09-18T02:11:48;19.60;99.90
14172;DHT22;7165;52.388;4.928;2023-09-18T02:14:16;19.60;99.90
14172;DHT22;7165;52.388;4.928;2023-09-18T02:16:43;19.70;99.90
14172;DHT22;7165;52.388;4.928;2023-09-18T02:19:11;19.80;99.90
14172;DHT22;7165;52.388;4.928;2023-09-18T02:21:37;19.80;99.90
14172;DHT22;7165;52.388;4.928;2023-09-18T02:24:04;19.80;99.90
14172;DHT22;7165;52.388;4.928;2023-09-18T02:26:31;19.80;99.90
14172;DHT22;7165;52.388;4.928;2023-09-18T02:28:58;19.80;99.90
14172;DHT22;7165;52.388;4.928;2023-09-18T02:31:26;19.80;99.90
14172;DHT22;7165;52.388;4.928;2023-09-18T02:33:52;19.90;99.90
14172;DHT22;7165;52.388;4.928;2023-09-18T02:36:19;19.90;99.90
14172;DHT22;7165;52.388;4.928;2023-09-18T02:38:45;19.90;99.90
14172;DHT22;7165;52.388;4.928;2023-09-18T02:41:12;19.90;99.90
14172;DHT22;7165;52.388;4.928;2023-09-18T02:43:38;19.90;99.90
14172;DHT22;7165;52.388;4.928;2023-09-18T02:46:05;20.00;99.90
14172;DHT22;7165;52.388;4.928;2023-09-18T02:48:33;20.00;99.90
14172;DHT22;7165;52.388;4.928;2023-09-18T02:51:00;20.00;99.90
14172;DHT22;7165;52.388;4.928;2023-09-18T02:53:26;20.00;99.90
14172;DHT22;7165;52.388;4.928;2023-09-18T02:55:53;20.00;99.90
14172;DHT22;7165;52.388;4.928;2023-09-18T02:58:20;20.00;99.90
14172;DHT22;7165;52.388;4.928;2023-09-18T03:00:48;20.00;99.90
14172;DHT22;7165;52.388;4.928;2023-09-18T03:03:15;20.00;99.90
14172;DHT22;7165;52.388;4.928;2023-09-18T03:05:43;20.00;99.90
14172;DHT22;7165;52.388;4.928;2023-09-18T03:08:11;20.00;99.90
14172;DHT22;7165;52.388;4.928;2023-09-18T03:10:38;20.00;99.90
14172;DHT22;7165;52.388;4.928;2023-09-18T03:13:05;20.00;99.90
14172;DHT22;7165;52.388;4.928;2023-09-18T03:15:33;20.00;99.90
14172;DHT22;7165;52.388;4.928;2023-09-18T03:18:00;20.00;99.90
14172;DHT22;7165;52.388;4.928;2023-09-18T03:20:27;20.00;99.90
14172;DHT22;7165;52.388;4.928;2023-09-18T03:22:56;19.90;99.90
14172;DHT22;7165;52.388;4.928;2023-09-18T03:25:23;19.90;99.90
14172;DHT22;7165;52.388;4.928;2023-09-18T03:27:50;19.90;99.90
14172;DHT22;7165;52.388;4.928;2023-09-18T03:30:17;19.90;99.90
14172;DHT22;7165;52.388;4.928;2023-09-18T03:32:44;19.90;99.90
14172;DHT22;7165;52.388;4.928;2023-09-18T03:35:11;19.80;99.90
14172;DHT22;7165;52.388;4.928;2023-09-18T03:37:43;19.80;99.90
14172;DHT22;7165;52.388;4.928;2023-09-18T03:40:11;19.90;99.90
14172;DHT22;7165;52.388;4.928;2023-09-18T03:42:37;19.80;99.90
14172;DHT22;7165;52.388;4.928;2023-09-18T03:45:05;19.80;99.90
14172;DHT22;7165;52.388;4.928;2023-09-18T03:47:31;19.80;99.90
14172;DHT22;7165;52.388;4.928;2023-09-18T03:49:58;19.80;99.90
14172;DHT22;7165;52.388;4.928;2023-09-18T03:52:25;19.80;99.90
14172;DHT22;7165;52.388;4.928;2023-09-18T03:54:51;19.80;99.90
14172;DHT22;7165;52.388;4.928;2023-09-18T03:57:20;19.80;99.90
14172;DHT22;7165;52.388;4.928;2023-09-18T03:59:46;19.80;99.90
14172;DHT22;7165;52.388;4.928;2023-09-18T04:02:13;19.80;99.90
14172;DHT22;7165;52.388;4.928;2023-09-18T04:04:40;19.80;99.90
14172;DHT22;7165;52.388;4.928;2023-09-18T04:07:06;19.80;99.90
14172;DHT22;7165;52.388;4.928;2023-09-18T04:09:33;19.80;99.90
14172;DHT22;7165;52.388;4.928;2023-09-18T04:12:00;19.80;99.90
14172;DHT22;7165;52.388;4.928;2023-09-18T04:14:28;19.80;99.90
14172;DHT22;7165;52.388;4.928;2023-09-18T04:16:54;19.80;99.90
14172;DHT22;7165;52.388;4.928;2023-09-18T04:19:21;19.80;99.90
14172;DHT22;7165;52.388;4.928;2023-09-18T04:21:47;19.90;99.90
14172;DHT22;7165;52.388;4.928;2023-09-18T04:24:14;19.80;99.90
14172;DHT22;7165;52.388;4.928;2023-09-18T04:26:40;19.80;99.90
14172;DHT22;7165;52.388;4.928;2023-09-18T04:29:08;19.80;99.90
14172;DHT22;7165;52.388;4.928;2023-09-18T04:31:36;19.80;99.90
14172;DHT22;7165;52.388;4.928;2023-09-18T04:34:03;19.70;99.90
14172;DHT22;7165;52.388;4.928;2023-09-18T04:36:30;19.70;99.90
14172;DHT22;7165;52.388;4.928;2023-09-18T04:38:57;19.70;99.90
14172;DHT22;7165;52.388;4.928;2023-09-18T04:41:23;19.60;99.90
14172;DHT22;7165;52.388;4.928;2023-09-18T04:43:50;19.50;99.90
14172;DHT22;7165;52.388;4.928;2023-09-18T04:46:16;19.50;99.90
14172;DHT22;7165;52.388;4.928;2023-09-18T04:48:44;19.50;99.90
14172;DHT22;7165;52.388;4.928;2023-09-18T04:51:11;19.40;99.90
14172;DHT22;7165;52.388;4.928;2023-09-18T04:53:38;19.40;99.90
14172;DHT22;7165;52.388;4.928;2023-09-18T04:56:04;19.30;99.90
14172;DHT22;7165;52.388;4.928;2023-09-18T04:58:31;19.30;99.90
14172;DHT22;7165;52.388;4.928;2023-09-18T05:00:58;19.20;99.90
14172;DHT22;7165;52.388;4.928;2023-09-18T05:03:25;19.20;99.90
14172;DHT22;7165;52.388;4.928;2023-09-18T05:05:55;19.20;99.90
14172;DHT22;7165;52.388;4.928;2023-09-18T05:08:22;19.20;99.90
14172;DHT22;7165;52.388;4.928;2023-09-18T05:10:48;19.10;99.90
14172;DHT22;7165;52.388;4.928;2023-09-18T05:13:15;19.10;99.90
14172;DHT22;7165;52.388;4.928;2023-09-18T05:15:42;19.10;99.90
14172;DHT22;7165;52.388;4.928;2023-09-18T05:18:09;19.10;99.90
14172;DHT22;7165;52.388;4.928;2023-09-18T05:20:35;19.00;99.90
14172;DHT22;7165;52.388;4.928;2023-09-18T05:23:03;19.00;99.90
14172;DHT22;7165;52.388;4.928;2023-09-18T05:25:30;19.00;99.90
14172;DHT22;7165;52.388;4.928;2023-09-18T05:27:57;19.00;99.90
14172;DHT22;7165;52.388;4.928;2023-09-18T05:30:25;19.00;99.90
14172;DHT22;7165;52.388;4.928;2023-09-18T05:32:53;19.00;99.90
14172;DHT22;7165;52.388;4.928;2023-09-18T05:35:20;18.90;99.90
14172;DHT22;7165;52.388;4.928;2023-09-18T05:37:46;19.00;99.90
14172;DHT22;7165;52.388;4.928;2023-09-18T05:40:14;19.00;99.90
14172;DHT22;7165;52.388;4.928;2023-09-18T05:42:41;19.10;99.90
14172;DHT22;7165;52.388;4.928;2023-09-18T05:45:09;19.10;99.90
14172;DHT22;7165;52.388;4.928;2023-09-18T05:47:35;19.10;99.90
14172;DHT22;7165;52.388;4.928;2023-09-18T05:50:03;19.10;99.90
14172;DHT22;7165;52.388;4.928;2023-09-18T05:52:30;19.10;99.90
14172;DHT22;7165;52.388;4.928;2023-09-18T05:54:57;19.20;99.90
14172;DHT22;7165;52.388;4.928;2023-09-18T05:57:25;19.20;99.90
14172;DHT22;7165;52.388;4.928;2023-09-18T05:59:52;19.20;99.90
14172;DHT22;7165;52.388;4.928;2023-09-18T06:02:19;19.20;99.90
14172;DHT22;7165;52.388;4.928;2023-09-18T06:04:46;19.20;99.90
14172;DHT22;7165;52.388;4.928;2023-09-18T06:07:12;19.30;99.90
14172;DHT22;7165;52.388;4.928;2023-09-18T06:09:39;19.30;99.90
14172;DHT22;7165;52.388;4.928;2023-09-18T06:12:06;19.30;99.90
14172;DHT22;7165;52.388;4.928;2023-09-18T06:14:36;19.30;99.90
14172;DHT22;7165;52.388;4.928;2023-09-18T06:17:03;19.30;99.90
14172;DHT22;7165;52.388;4.928;2023-09-18T06:19:31;19.40;99.90
14172;DHT22;7165;52.388;4.928;2023-09-18T06:21:58;19.40;99.90
14172;DHT22;7165;52.388;4.928;2023-09-18T06:24:24;19.40;99.90
14172;DHT22;7165;52.388;4.928;2023-09-18T06:26:51;19.40;99.90
14172;DHT22;7165;52.388;4.928;2023-09-18T06:29:18;19.40;99.90
14172;DHT22;7165;52.388;4.928;2023-09-18T06:31:46;19.40;99.90
14172;DHT22;7165;52.388;4.928;2023-09-18T06:34:12;19.40;99.90
14172;DHT22;7165;52.388;4.928;2023-09-18T06:36:39;19.40;99.90
14172;DHT22;7165;52.388;4.928;2023-09-18T06:39:06;19.40;99.90
14172;DHT22;7165;52.388;4.928;2023-09-18T06:41:32;19.40;99.90
14172;DHT22;7165;52.388;4.928;2023-09-18T06:43:59;19.40;99.90
14172;DHT22;7165;52.388;4.928;2023-09-18T06:46:27;19.40;99.90
14172;DHT22;7165;52.388;4.928;2023-09-18T06:48:55;19.40;99.90
14172;DHT22;7165;52.388;4.928;2023-09-18T06:51:22;19.40;99.90
14172;DHT22;7165;52.388;4.928;2023-09-18T06:53:49;19.40;99.90
14172;DHT22;7165;52.388;4.928;2023-09-18T06:56:15;19.40;99.90
14172;DHT22;7165;52.388;4.928;2023-09-18T06:58:42;19.40;99.90
14172;DHT22;7165;52.388;4.928;2023-09-18T07:01:08;19.40;99.90
14172;DHT22;7165;52.388;4.928;2023-09-18T07:03:35;19.40;99.90
14172;DHT22;7165;52.388;4.928;2023-09-18T07:06:03;19.40;99.90
14172;DHT22;7165;52.388;4.928;2023-09-18T07:08:30;19.40;99.90
14172;DHT22;7165;52.388;4.928;2023-09-18T07:10:58;19.40;99.90
14172;DHT22;7165;52.388;4.928;2023-09-18T07:13:24;19.50;99.90
14172;DHT22;7165;52.388;4.928;2023-09-18T07:15:51;19.50;99.90
14172;DHT22;7165;52.388;4.928;2023-09-18T07:18:18;19.50;99.90
14172;DHT22;7165;52.388;4.928;2023-09-18T07:20:44;19.50;99.90
14172;DHT22;7165;52.388;4.928;2023-09-18T07:23:12;19.50;99.90
14172;DHT22;7165;52.388;4.928;2023-09-18T07:25:39;19.60;99.90
14172;DHT22;7165;52.388;4.928;2023-09-18T07:28:09;19.60;99.90
14172;DHT22;7165;52.388;4.928;2023-09-18T07:30:41;19.70;99.90
14172;DHT22;7165;52.388;4.928;2023-09-18T07:33:09;19.70;99.90
14172;DHT22;7165;52.388;4.928;2023-09-18T07:35:36;19.70;99.90
14172;DHT22;7165;52.388;4.928;2023-09-18T07:38:03;19.70;99.90
14172;DHT22;7165;52.388;4.928;2023-09-18T07:40:31;19.80;99.90
14172;DHT22;7165;52.388;4.928;2023-09-18T07:42:57;19.80;99.90
14172;DHT22;7165;52.388;4.928;2023-09-18T07:45:24;19.80;99.90
14172;DHT22;7165;52.388;4.928;2023-09-18T07:47:50;19.80;99.90
14172;DHT22;7165;52.388;4.928;2023-09-18T07:50:17;19.90;99.90
14172;DHT22;7165;52.388;4.928;2023-09-18T07:52:43;19.90;99.90
14172;DHT22;7165;52.388;4.928;2023-09-18T07:55:10;20.00;99.90
14172;DHT22;7165;52.388;4.928;2023-09-18T07:57:38;20.00;99.90
14172;DHT22;7165;52.388;4.928;2023-09-18T08:00:06;20.00;99.90
14172;DHT22;7165;52.388;4.928;2023-09-18T08:02:37;20.00;99.90
14172;DHT22;7165;52.388;4.928;2023-09-18T08:05:05;20.10;99.90
14172;DHT22;7165;52.388;4.928;2023-09-18T08:07:32;20.20;99.90
14172;DHT22;7165;52.388;4.928;2023-09-18T08:10:00;20.20;99.90
14172;DHT22;7165;52.388;4.928;2023-09-18T08:12:27;20.20;99.90
14172;DHT22;7165;52.388;4.928;2023-09-18T08:14:55;20.20;99.90
14172;DHT22;7165;52.388;4.928;2023-09-18T08:17:24;20.20;99.90
14172;DHT22;7165;52.388;4.928;2023-09-18T08:19:51;20.20;99.90
14172;DHT22;7165;52.388;4.928;2023-09-18T08:22:18;20.20;99.90
14172;DHT22;7165;52.388;4.928;2023-09-18T08:24:46;20.20;99.90
14172;DHT22;7165;52.388;4.928;2023-09-18T08:27:14;20.30;99.90
14172;DHT22;7165;52.388;4.928;2023-09-18T08:29:42;20.30;99.90
14172;DHT22;7165;52.388;4.928;2023-09-18T08:32:10;20.40;99.90
14172;DHT22;7165;52.388;4.928;2023-09-18T08:34:37;20.40;99.90
14172;DHT22;7165;52.388;4.928;2023-09-18T08:37:04;20.50;99.90
14172;DHT22;7165;52.388;4.928;2023-09-18T08:39:31;20.60;99.90
14172;DHT22;7165;52.388;4.928;2023-09-18T08:41:59;20.80;99.90
14172;DHT22;7165;52.388;4.928;2023-09-18T08:44:26;20.90;99.90
14172;DHT22;7165;52.388;4.928;2023-09-18T08:46:53;21.00;99.90
14172;DHT22;7165;52.388;4.928;2023-09-18T08:49:21;21.10;99.90
14172;DHT22;7165;52.388;4.928;2023-09-18T08:51:49;21.20;99.90
14172;DHT22;7165;52.388;4.928;2023-09-18T08:54:15;21.10;99.90
14172;DHT22;7165;52.388;4.928;2023-09-18T08:56:42;21.20;99.90
14172;DHT22;7165;52.388;4.928;2023-09-18T08:59:08;21.10;99.90
14172;DHT22;7165;52.388;4.928;2023-09-18T09:01:35;21.30;99.90
14172;DHT22;7165;52.388;4.928;2023-09-18T09:04:02;21.40;99.90
14172;DHT22;7165;52.388;4.928;2023-09-18T09:06:30;21.40;99.90
14172;DHT22;7165;52.388;4.928;2023-09-18T09:08:57;21.40;99.90
14172;DHT22;7165;52.388;4.928;2023-09-18T09:11:24;21.40;99.90
14172;DHT22;7165;52.388;4.928;2023-09-18T09:13:57;21.30;99.90
14172;DHT22;7165;52.388;4.928;2023-09-18T09:16:34;21.30;99.90
14172;DHT22;7165;52.388;4.928;2023-09-18T09:19:01;21.20;99.90
14172;DHT22;7165;52.388;4.928;2023-09-18T09:21:39;21.10;99.90
14172;DHT22;7165;52.388;4.928;2023-09-18T09:24:05;21.00;99.90
14172;DHT22;7165;52.388;4.928;2023-09-18T09:26:32;21.00;99.90
14172;DHT22;7165;52.388;4.928;2023-09-18T09:29:13;21.00;99.90
14172;DHT22;7165;52.388;4.928;2023-09-18T09:31:40;21.00;99.90
14172;DHT22;7165;52.388;4.928;2023-09-18T09:34:07;20.90;99.90
14172;DHT22;7165;52.388;4.928;2023-09-18T09:36:34;20.90;99.90
14172;DHT22;7165;52.388;4.928;2023-09-18T09:39:02;20.90;99.90
14172;DHT22;7165;52.388;4.928;2023-09-18T09:41:30;20.90;99.90
14172;DHT22;7165;52.388;4.928;2023-09-18T09:43:59;20.90;99.90
14172;DHT22;7165;52.388;4.928;2023-09-18T09:46:25;21.00;99.90
14172;DHT22;7165;52.388;4.928;2023-09-18T09:48:59;21.10;99.90
14172;DHT22;7165;52.388;4.928;2023-09-18T09:51:26;21.40;99.90
14172;DHT22;7165;52.388;4.928;2023-09-18T09:53:53;21.60;99.90
14172;DHT22;7165;52.388;4.928;2023-09-18T09:56:21;21.70;99.90
14172;DHT22;7165;52.388;4.928;2023-09-18T09:59:00;21.70;99.90
14172;DHT22;7165;52.388;4.928;2023-09-18T10:01:29;21.70;99.90
14172;DHT22;7165;52.388;4.928;2023-09-18T10:03:56;21.70;99.90
14172;DHT22;7165;52.388;4.928;2023-09-18T10:06:23;21.60;99.90
14172;DHT22;7165;52.388;4.928;2023-09-18T10:08:50;21.60;99.90
14172;DHT22;7165;52.388;4.928;2023-09-18T10:11:19;21.60;99.90
14172;DHT22;7165;52.388;4.928;2023-09-18T10:13:50;21.80;99.90
14172;DHT22;7165;52.388;4.928;2023-09-18T10:16:19;22.00;99.90
14172;DHT22;7165;52.388;4.928;2023-09-18T10:18:53;22.10;99.90
14172;DHT22;7165;52.388;4.928;2023-09-18T10:21:25;22.10;99.90
14172;DHT22;7165;52.388;4.928;2023-09-18T10:23:58;22.10;99.90
14172;DHT22;7165;52.388;4.928;2023-09-18T10:26:25;22.20;99.90
14172;DHT22;7165;52.388;4.928;2023-09-18T10:28:55;22.40;99.90
14172;DHT22;7165;52.388;4.928;2023-09-18T10:31:25;22.60;99.90
14172;DHT22;7165;52.388;4.928;2023-09-18T10:33:54;22.90;99.90
14172;DHT22;7165;52.388;4.928;2023-09-18T10:36:22;23.00;99.90
14172;DHT22;7165;52.388;4.928;2023-09-18T10:38:50;23.00;99.90
14172;DHT22;7165;52.388;4.928;2023-09-18T10:41:19;23.00;99.90
14172;DHT22;7165;52.388;4.928;2023-09-18T10:43:47;23.00;99.90
14172;DHT22;7165;52.388;4.928;2023-09-18T10:46:16;23.10;99.90
14172;DHT22;7165;52.388;4.928;2023-09-18T10:48:44;23.20;99.90
14172;DHT22;7165;52.388;4.928;2023-09-18T10:51:12;23.30;99.90
14172;DHT22;7165;52.388;4.928;2023-09-18T10:53:39;23.40;99.90
14172;DHT22;7165;52.388;4.928;2023-09-18T10:56:06;23.30;99.90
14172;DHT22;7165;52.388;4.928;2023-09-18T10:58:33;23.20;99.90
14172;DHT22;7165;52.388;4.928;2023-09-18T11:01:01;23.10;99.90
14172;DHT22;7165;52.388;4.928;2023-09-18T11:03:31;23.20;99.90
14172;DHT22;7165;52.388;4.928;2023-09-18T11:06:03;23.20;99.90
14172;DHT22;7165;52.388;4.928;2023-09-18T11:08:32;23.10;99.90
14172;DHT22;7165;52.388;4.928;2023-09-18T11:11:02;23.00;99.90
14172;DHT22;7165;52.388;4.928;2023-09-18T11:13:36;22.80;99.90
14172;DHT22;7165;52.388;4.928;2023-09-18T11:16:15;22.60;99.90
14172;DHT22;7165;52.388;4.928;2023-09-18T11:18:47;22.70;99.90
14172;DHT22;7165;52.388;4.928;2023-09-18T11:21:15;22.80;99.90
14172;DHT22;7165;52.388;4.928;2023-09-18T11:23:43;22.90;99.90
14172;DHT22;7165;52.388;4.928;2023-09-18T11:26:09;23.00;99.90
14172;DHT22;7165;52.388;4.928;2023-09-18T11:28:37;23.30;99.90
14172;DHT22;7165;52.388;4.928;2023-09-18T11:31:04;23.60;99.90
14172;DHT22;7165;52.388;4.928;2023-09-18T11:33:35;23.90;99.90
14172;DHT22;7165;52.388;4.928;2023-09-18T11:36:06;24.10;99.90
14172;DHT22;7165;52.388;4.928;2023-09-18T11:38:34;24.10;99.90
14172;DHT22;7165;52.388;4.928;2023-09-18T11:41:14;24.10;99.90
14172;DHT22;7165;52.388;4.928;2023-09-18T11:43:45;24.00;99.90
14172;DHT22;7165;52.388;4.928;2023-09-18T11:46:12;24.10;99.90
14172;DHT22;7165;52.388;4.928;2023-09-18T11:48:43;24.00;99.90
14172;DHT22;7165;52.388;4.928;2023-09-18T11:51:12;23.70;99.90
14172;DHT22;7165;52.388;4.928;2023-09-18T11:53:39;23.60;99.90
14172;DHT22;7165;52.388;4.928;2023-09-18T11:56:10;23.30;99.90
14172;DHT22;7165;52.388;4.928;2023-09-18T11:58:48;23.30;99.90
14172;DHT22;7165;52.388;4.928;2023-09-18T12:01:15;23.20;99.90
14172;DHT22;7165;52.388;4.928;2023-09-18T12:03:42;23.30;99.90
14172;DHT22;7165;52.388;4.928;2023-09-18T12:06:08;23.30;99.90
14172;DHT22;7165;52.388;4.928;2023-09-18T12:08:39;23.50;99.90
14172;DHT22;7165;52.388;4.928;2023-09-18T12:11:07;23.70;99.90
14172;DHT22;7165;52.388;4.928;2023-09-18T12:13:33;23.70;99.90
14172;DHT22;7165;52.388;4.928;2023-09-18T12:16:00;23.60;99.90
14172;DHT22;7165;52.388;4.928;2023-09-18T12:18:30;23.50;99.90
14172;DHT22;7165;52.388;4.928;2023-09-18T12:20:57;23.70;99.90
14172;DHT22;7165;52.388;4.928;2023-09-18T12:23:24;23.60;99.90
14172;DHT22;7165;52.388;4.928;2023-09-18T12:25:58;23.60;99.90
14172;DHT22;7165;52.388;4.928;2023-09-18T12:28:25;23.60;99.90
14172;DHT22;7165;52.388;4.928;2023-09-18T12:30:55;23.70;99.90
14172;DHT22;7165;52.388;4.928;2023-09-18T12:33:24;23.80;99.90
14172;DHT22;7165;52.388;4.928;2023-09-18T12:35:51;23.80;99.90
14172;DHT22;7165;52.388;4.928;2023-09-18T12:38:18;23.70;99.90
14172;DHT22;7165;52.388;4.928;2023-09-18T12:40:48;23.90;99.90
14172;DHT22;7165;52.388;4.928;2023-09-18T12:43:17;24.20;99.90
14172;DHT22;7165;52.388;4.928;2023-09-18T12:45:45;24.30;99.90
14172;DHT22;7165;52.388;4.928;2023-09-18T12:48:13;24.20;99.90
14172;DHT22;7165;52.388;4.928;2023-09-18T12:50:40;24.30;99.90
14172;DHT22;7165;52.388;4.928;2023-09-18T12:53:08;24.10;99.90
14172;DHT22;7165;52.388;4.928;2023-09-18T12:55:35;24.10;99.90
14172;DHT22;7165;52.388;4.928;2023-09-18T12:58:02;24.10;99.90
14172;DHT22;7165;52.388;4.928;2023-09-18T13:00:34;23.90;99.90
14172;DHT22;7165;52.388;4.928;2023-09-18T13:03:01;23.80;99.90
14172;DHT22;7165;52.388;4.928;2023-09-18T13:05:30;23.70;99.90
14172;DHT22;7165;52.388;4.928;2023-09-18T13:08:02;23.60;99.90
14172;DHT22;7165;52.388;4.928;2023-09-18T13:10:29;23.50;99.90
14172;DHT22;7165;52.388;4.928;2023-09-18T13:12:56;23.50;99.90
14172;DHT22;7165;52.388;4.928;2023-09-18T13:15:25;23.40;99.90
14172;DHT22;7165;52.388;4.928;2023-09-18T13:17:55;23.30;99.90
14172;DHT22;7165;52.388;4.928;2023-09-18T13:20:23;23.30;99.90
14172;DHT22;7165;52.388;4.928;2023-09-18T13:22:53;23.40;99.90
14172;DHT22;7165;52.388;4.928;2023-09-18T13:25:20;23.50;99.90
14172;DHT22;7165;52.388;4.928;2023-09-18T13:27:48;23.80;99.90
14172;DHT22;7165;52.388;4.928;2023-09-18T13:30:15;24.00;99.90
14172;DHT22;7165;52.388;4.928;2023-09-18T13:32:42;24.10;99.90
14172;DHT22;7165;52.388;4.928;2023-09-18T13:35:11;23.90;99.90
14172;DHT22;7165;52.388;4.928;2023-09-18T13:37:39;23.70;99.90
14172;DHT22;7165;52.388;4.928;2023-09-18T13:40:07;23.70;99.90
14172;DHT22;7165;52.388;4.928;2023-09-18T13:42:34;23.80;99.90
14172;DHT22;7165;52.388;4.928;2023-09-18T13:45:01;23.80;99.90
14172;DHT22;7165;52.388;4.928;2023-09-18T13:47:30;23.90;99.90
14172;DHT22;7165;52.388;4.928;2023-09-18T13:49:56;23.90;99.90
14172;DHT22;7165;52.388;4.928;2023-09-18T13:52:26;24.00;99.90
14172;DHT22;7165;52.388;4.928;2023-09-18T13:54:53;24.00;99.90
14172;DHT22;7165;52.388;4.928;2023-09-18T13:57:20;24.10;99.90
14172;DHT22;7165;52.388;4.928;2023-09-18T13:59:47;24.30;99.90
14172;DHT22;7165;52.388;4.928;2023-09-18T14:02:14;24.30;99.90
14172;DHT22;7165;52.388;4.928;2023-09-18T14:04:40;24.30;99.90
14172;DHT22;7165;52.388;4.928;2023-09-18T14:07:07;24.20;99.90
14172;DHT22;7165;52.388;4.928;2023-09-18T14:09:36;24.00;99.90
14172;DHT22;7165;52.388;4.928;2023-09-18T14:12:02;23.70;99.90
14172;DHT22;7165;52.388;4.928;2023-09-18T14:14:30;23.50;99.90
14172;DHT22;7165;52.388;4.928;2023-09-18T14:16:58;23.30;99.90
14172;DHT22;7165;52.388;4.928;2023-09-18T14:19:24;23.10;99.90
14172;DHT22;7165;52.388;4.928;2023-09-18T14:21:51;22.90;99.90
14172;DHT22;7165;52.388;4.928;2023-09-18T14:24:19;22.80;99.90
14172;DHT22;7165;52.388;4.928;2023-09-18T14:26:51;22.70;99.90
14172;DHT22;7165;52.388;4.928;2023-09-18T14:29:18;22.60;99.90
14172;DHT22;7165;52.388;4.928;2023-09-18T14:31:44;22.50;99.90
14172;DHT22;7165;52.388;4.928;2023-09-18T14:34:11;22.40;99.90
14172;DHT22;7165;52.388;4.928;2023-09-18T14:36:38;22.40;99.90
14172;DHT22;7165;52.388;4.928;2023-09-18T14:39:05;22.30;99.90
14172;DHT22;7165;52.388;4.928;2023-09-18T14:41:33;22.20;99.90
14172;DHT22;7165;52.388;4.928;2023-09-18T14:44:01;22.10;99.90
14172;DHT22;7165;52.388;4.928;2023-09-18T14:46:29;22.10;99.90
14172;DHT22;7165;52.388;4.928;2023-09-18T14:48:55;22.00;99.90
14172;DHT22;7165;52.388;4.928;2023-09-18T14:51:22;21.80;99.90
14172;DHT22;7165;52.388;4.928;2023-09-18T14:53:48;21.60;99.90
14172;DHT22;7165;52.388;4.928;2023-09-18T14:56:15;21.30;99.90
14172;DHT22;7165;52.388;4.928;2023-09-18T14:58:42;21.20;99.90
14172;DHT22;7165;52.388;4.928;2023-09-18T15:01:10;21.00;99.90
14172;DHT22;7165;52.388;4.928;2023-09-18T15:03:39;20.70;99.90
14172;DHT22;7165;52.388;4.928;2023-09-18T15:06:06;20.40;99.90
14172;DHT22;7165;52.388;4.928;2023-09-18T15:08:33;20.20;99.90
14172;DHT22;7165;52.388;4.928;2023-09-18T15:10:59;20.00;99.90
14172;DHT22;7165;52.388;4.928;2023-09-18T15:13:26;19.90;99.90
14172;DHT22;7165;52.388;4.928;2023-09-18T15:15:52;19.80;99.90
14172;DHT22;7165;52.388;4.928;2023-09-18T15:18:20;19.70;99.90
14172;DHT22;7165;52.388;4.928;2023-09-18T15:20:47;19.60;99.90
14172;DHT22;7165;52.388;4.928;2023-09-18T15:23:19;19.60;99.90
14172;DHT22;7165;52.388;4.928;2023-09-18T15:25:47;19.50;99.90
14172;DHT22;7165;52.388;4.928;2023-09-18T15:28:15;19.50;99.90
14172;DHT22;7165;52.388;4.928;2023-09-18T15:30:42;19.50;99.90
14172;DHT22;7165;52.388;4.928;2023-09-18T15:33:08;19.40;99.90
14172;DHT22;7165;52.388;4.928;2023-09-18T15:35:36;19.40;99.90
14172;DHT22;7165;52.388;4.928;2023-09-18T15:38:03;19.60;99.90
14172;DHT22;7165;52.388;4.928;2023-09-18T15:40:29;20.20;99.90
14172;DHT22;7165;52.388;4.928;2023-09-18T15:42:56;20.90;99.90
14172;DHT22;7165;52.388;4.928;2023-09-18T15:45:23;21.30;99.90
14172;DHT22;7165;52.388;4.928;2023-09-18T15:47:50;21.80;99.90